sensor_id;sensor_type;location;lat;lon;timestamp;P1;durP1;ratioP1;P2;durP2;ratioP2
11348;SDS011;5729;43.570;27.826;2023-05-14T00:01:11;9.70;;;7.88;;
11348;SDS011;5729;43.570;27.826;2023-05-14T00:03:37;13.43;;;8.48;;
11348;SDS011;5729;43.570;27.826;2023-05-14T00:06:04;12.57;;;8.18;;
11348;SDS011;5729;43.570;27.826;2023-05-14T00:08:30;14.38;;;8.25;;
11348;SDS011;5729;43.570;27.826;2023-05-14T00:10:56;12.20;;;7.00;;
11348;SDS011;5729;43.570;27.826;2023-05-14T00:13:21;12.95;;;8.68;;
11348;SDS011;5729;43.570;27.826;2023-05-14T00:15:47;10.80;;;8.23;;
11348;SDS011;5729;43.570;27.826;2023-05-14T00:18:12;10.65;;;8.32;;
11348;SDS011;5729;43.570;27.826;2023-05-14T00:20:38;14.82;;;7.78;;
11348;SDS011;5729;43.570;27.826;2023-05-14T00:23:03;14.85;;;8.00;;
11348;SDS011;5729;43.570;27.826;2023-05-14T00:25:28;13.38;;;7.95;;
11348;SDS011;5729;43.570;27.826;2023-05-14T00:27:54;15.93;;;8.32;;
11348;SDS011;5729;43.570;27.826;2023-05-14T00:30:19;11.98;;;7.05;;
11348;SDS011;5729;43.570;27.826;2023-05-14T00:32:45;9.23;;;7.10;;
11348;SDS011;5729;43.570;27.826;2023-05-14T00:35:10;8.55;;;6.78;;
11348;SDS011;5729;43.570;27.826;2023-05-14T00:37:36;12.38;;;6.68;;
11348;SDS011;5729;43.570;27.826;2023-05-14T00:40:02;13.68;;;6.70;;
11348;SDS011;5729;43.570;27.826;2023-05-14T00:42:28;9.77;;;6.60;;
11348;SDS011;5729;43.570;27.826;2023-05-14T00:44:53;9.95;;;7.70;;
11348;SDS011;5729;43.570;27.826;2023-05-14T00:47:18;15.57;;;6.80;;
11348;SDS011;5729;43.570;27.826;2023-05-14T00:49:44;9.27;;;6.78;;
11348;SDS011;5729;43.570;27.826;2023-05-14T00:52:10;9.50;;;6.65;;
11348;SDS011;5729;43.570;27.826;2023-05-14T00:54:37;10.48;;;6.95;;
11348;SDS011;5729;43.570;27.826;2023-05-14T00:57:03;10.52;;;6.78;;
11348;SDS011;5729;43.570;27.826;2023-05-14T00:59:30;13.45;;;7.38;;
11348;SDS011;5729;43.570;27.826;2023-05-14T01:01:56;10.15;;;6.90;;
11348;SDS011;5729;43.570;27.826;2023-05-14T01:04:22;9.55;;;6.47;;
11348;SDS011;5729;43.570;27.826;2023-05-14T01:07:04;9.48;;;6.50;;
11348;SDS011;5729;43.570;27.826;2023-05-14T01:09:52;9.82;;;6.13;;
11348;SDS011;5729;43.570;27.826;2023-05-14T01:12:28;8.75;;;6.35;;
11348;SDS011;5729;43.570;27.826;2023-05-14T01:17:31;10.20;;;5.78;;
11348;SDS011;5729;43.570;27.826;2023-05-14T01:20:02;12.52;;;6.30;;
11348;SDS011;5729;43.570;27.826;2023-05-14T01:22:28;9.82;;;5.88;;
11348;SDS011;5729;43.570;27.826;2023-05-14T01:24:53;10.52;;;6.75;;
11348;SDS011;5729;43.570;27.826;2023-05-14T01:27:28;15.10;;;7.00;;
11348;SDS011;5729;43.570;27.826;2023-05-14T01:32:37;10.05;;;7.05;;
11348;SDS011;5729;43.570;27.826;2023-05-14T01:35:04;8.77;;;7.18;;
11348;SDS011;5729;43.570;27.826;2023-05-14T01:37:32;10.65;;;7.13;;
11348;SDS011;5729;43.570;27.826;2023-05-14T01:39:57;10.07;;;7.18;;
11348;SDS011;5729;43.570;27.826;2023-05-14T01:42:24;7.88;;;6.28;;
11348;SDS011;5729;43.570;27.826;2023-05-14T01:44:50;7.70;;;6.55;;
11348;SDS011;5729;43.570;27.826;2023-05-14T01:47:15;10.82;;;7.53;;
11348;SDS011;5729;43.570;27.826;2023-05-14T01:49:41;12.55;;;6.70;;
11348;SDS011;5729;43.570;27.826;2023-05-14T01:52:06;7.30;;;6.25;;
11348;SDS011;5729;43.570;27.826;2023-05-14T01:54:32;7.75;;;6.38;;
11348;SDS011;5729;43.570;27.826;2023-05-14T01:56:58;9.32;;;6.03;;
11348;SDS011;5729;43.570;27.826;2023-05-14T01:59:23;7.97;;;6.65;;
11348;SDS011;5729;43.570;27.826;2023-05-14T02:01:49;10.63;;;6.68;;
11348;SDS011;5729;43.570;27.826;2023-05-14T02:04:14;8.38;;;6.50;;
11348;SDS011;5729;43.570;27.826;2023-05-14T02:06:40;9.30;;;6.32;;
11348;SDS011;5729;43.570;27.826;2023-05-14T02:09:05;12.05;;;6.40;;
11348;SDS011;5729;43.570;27.826;2023-05-14T02:11:31;12.57;;;6.78;;
11348;SDS011;5729;43.570;27.826;2023-05-14T02:13:56;8.30;;;5.97;;
11348;SDS011;5729;43.570;27.826;2023-05-14T02:16:22;8.10;;;6.03;;
11348;SDS011;5729;43.570;27.826;2023-05-14T02:18:47;10.05;;;5.90;;
11348;SDS011;5729;43.570;27.826;2023-05-14T02:21:12;8.60;;;5.55;;
11348;SDS011;5729;43.570;27.826;2023-05-14T02:23:38;6.10;;;5.32;;
11348;SDS011;5729;43.570;27.826;2023-05-14T02:26:03;6.25;;;5.15;;
11348;SDS011;5729;43.570;27.826;2023-05-14T02:28:29;7.68;;;5.45;;
11348;SDS011;5729;43.570;27.826;2023-05-14T02:30:58;15.38;;;5.72;;
11348;SDS011;5729;43.570;27.826;2023-05-14T02:33:25;9.90;;;6.35;;
11348;SDS011;5729;43.570;27.826;2023-05-14T02:35:50;7.13;;;6.10;;
11348;SDS011;5729;43.570;27.826;2023-05-14T02:38:16;10.90;;;5.85;;
11348;SDS011;5729;43.570;27.826;2023-05-14T02:40:41;7.82;;;5.95;;
11348;SDS011;5729;43.570;27.826;2023-05-14T02:43:06;7.03;;;5.60;;
11348;SDS011;5729;43.570;27.826;2023-05-14T02:45:32;7.00;;;5.75;;
11348;SDS011;5729;43.570;27.826;2023-05-14T02:47:57;11.15;;;6.00;;
11348;SDS011;5729;43.570;27.826;2023-05-14T02:50:22;8.95;;;5.53;;
11348;SDS011;5729;43.570;27.826;2023-05-14T02:52:48;7.68;;;5.85;;
11348;SDS011;5729;43.570;27.826;2023-05-14T02:55:13;10.18;;;6.47;;
11348;SDS011;5729;43.570;27.826;2023-05-14T02:57:39;8.70;;;5.50;;
11348;SDS011;5729;43.570;27.826;2023-05-14T03:00:04;6.38;;;5.45;;
11348;SDS011;5729;43.570;27.826;2023-05-14T03:02:30;12.38;;;7.00;;
11348;SDS011;5729;43.570;27.826;2023-05-14T03:04:56;10.98;;;6.70;;
11348;SDS011;5729;43.570;27.826;2023-05-14T03:07:21;16.13;;;7.28;;
11348;SDS011;5729;43.570;27.826;2023-05-14T03:09:47;9.73;;;7.03;;
11348;SDS011;5729;43.570;27.826;2023-05-14T03:12:12;12.00;;;7.18;;
11348;SDS011;5729;43.570;27.826;2023-05-14T03:14:38;10.48;;;7.60;;
11348;SDS011;5729;43.570;27.826;2023-05-14T03:17:04;10.75;;;7.18;;
11348;SDS011;5729;43.570;27.826;2023-05-14T03:19:29;11.50;;;7.75;;
11348;SDS011;5729;43.570;27.826;2023-05-14T03:21:55;10.80;;;7.22;;
11348;SDS011;5729;43.570;27.826;2023-05-14T03:24:20;14.10;;;7.32;;
11348;SDS011;5729;43.570;27.826;2023-05-14T03:26:45;15.02;;;7.88;;
11348;SDS011;5729;43.570;27.826;2023-05-14T03:29:11;10.20;;;7.63;;
11348;SDS011;5729;43.570;27.826;2023-05-14T03:31:36;11.40;;;7.32;;
11348;SDS011;5729;43.570;27.826;2023-05-14T03:34:02;15.10;;;7.93;;
11348;SDS011;5729;43.570;27.826;2023-05-14T03:36:27;18.95;;;8.30;;
11348;SDS011;5729;43.570;27.826;2023-05-14T03:38:53;12.85;;;8.45;;
11348;SDS011;5729;43.570;27.826;2023-05-14T03:41:18;16.38;;;9.48;;
11348;SDS011;5729;43.570;27.826;2023-05-14T03:43:44;16.98;;;8.95;;
11348;SDS011;5729;43.570;27.826;2023-05-14T03:46:09;15.30;;;9.13;;
11348;SDS011;5729;43.570;27.826;2023-05-14T03:48:35;16.92;;;9.15;;
11348;SDS011;5729;43.570;27.826;2023-05-14T03:51:00;14.98;;;8.80;;
11348;SDS011;5729;43.570;27.826;2023-05-14T03:53:26;14.93;;;8.48;;
11348;SDS011;5729;43.570;27.826;2023-05-14T03:55:51;9.80;;;7.00;;
11348;SDS011;5729;43.570;27.826;2023-05-14T03:58:16;17.05;;;8.30;;
11348;SDS011;5729;43.570;27.826;2023-05-14T04:00:42;13.70;;;8.68;;
11348;SDS011;5729;43.570;27.826;2023-05-14T04:03:07;16.10;;;9.52;;
11348;SDS011;5729;43.570;27.826;2023-05-14T04:05:33;19.58;;;10.27;;
11348;SDS011;5729;43.570;27.826;2023-05-14T04:07:59;19.20;;;10.18;;
11348;SDS011;5729;43.570;27.826;2023-05-14T04:10:25;18.48;;;8.18;;
11348;SDS011;5729;43.570;27.826;2023-05-14T04:12:51;13.20;;;7.80;;
11348;SDS011;5729;43.570;27.826;2023-05-14T04:15:16;13.68;;;8.05;;
11348;SDS011;5729;43.570;27.826;2023-05-14T04:17:42;11.82;;;7.53;;
11348;SDS011;5729;43.570;27.826;2023-05-14T04:20:07;8.70;;;5.82;;
11348;SDS011;5729;43.570;27.826;2023-05-14T04:22:33;7.00;;;5.32;;
11348;SDS011;5729;43.570;27.826;2023-05-14T04:24:59;6.03;;;4.93;;
11348;SDS011;5729;43.570;27.826;2023-05-14T04:27:24;8.70;;;5.57;;
11348;SDS011;5729;43.570;27.826;2023-05-14T04:29:50;13.07;;;6.78;;
11348;SDS011;5729;43.570;27.826;2023-05-14T04:32:15;16.85;;;8.65;;
11348;SDS011;5729;43.570;27.826;2023-05-14T04:34:41;14.07;;;8.23;;
11348;SDS011;5729;43.570;27.826;2023-05-14T04:37:07;13.02;;;6.80;;
11348;SDS011;5729;43.570;27.826;2023-05-14T04:39:33;13.48;;;7.90;;
11348;SDS011;5729;43.570;27.826;2023-05-14T04:41:58;15.45;;;8.50;;
11348;SDS011;5729;43.570;27.826;2023-05-14T04:44:24;20.55;;;11.10;;
11348;SDS011;5729;43.570;27.826;2023-05-14T04:46:50;15.65;;;10.13;;
11348;SDS011;5729;43.570;27.826;2023-05-14T04:49:15;25.88;;;10.32;;
11348;SDS011;5729;43.570;27.826;2023-05-14T04:51:41;19.80;;;10.38;;
11348;SDS011;5729;43.570;27.826;2023-05-14T04:54:07;15.82;;;7.80;;
11348;SDS011;5729;43.570;27.826;2023-05-14T04:56:32;12.95;;;6.85;;
11348;SDS011;5729;43.570;27.826;2023-05-14T04:58:57;11.88;;;6.60;;
11348;SDS011;5729;43.570;27.826;2023-05-14T05:01:23;16.35;;;6.93;;
11348;SDS011;5729;43.570;27.826;2023-05-14T05:03:48;9.27;;;5.22;;
11348;SDS011;5729;43.570;27.826;2023-05-14T05:06:14;6.00;;;4.40;;
11348;SDS011;5729;43.570;27.826;2023-05-14T05:08:40;12.57;;;4.68;;
11348;SDS011;5729;43.570;27.826;2023-05-14T05:11:05;9.98;;;7.18;;
11348;SDS011;5729;43.570;27.826;2023-05-14T05:13:31;10.77;;;7.32;;
11348;SDS011;5729;43.570;27.826;2023-05-14T05:15:57;15.88;;;6.18;;
11348;SDS011;5729;43.570;27.826;2023-05-14T05:18:22;18.23;;;6.70;;
11348;SDS011;5729;43.570;27.826;2023-05-14T05:20:48;16.63;;;5.60;;
11348;SDS011;5729;43.570;27.826;2023-05-14T05:23:13;9.45;;;6.03;;
11348;SDS011;5729;43.570;27.826;2023-05-14T05:25:38;16.85;;;6.50;;
11348;SDS011;5729;43.570;27.826;2023-05-14T05:28:04;13.77;;;5.68;;
11348;SDS011;5729;43.570;27.826;2023-05-14T05:30:29;8.75;;;5.82;;
11348;SDS011;5729;43.570;27.826;2023-05-14T05:32:55;8.18;;;3.65;;
11348;SDS011;5729;43.570;27.826;2023-05-14T05:35:21;3.67;;;2.90;;
11348;SDS011;5729;43.570;27.826;2023-05-14T05:37:47;6.70;;;3.55;;
11348;SDS011;5729;43.570;27.826;2023-05-14T05:40:12;4.40;;;2.75;;
11348;SDS011;5729;43.570;27.826;2023-05-14T05:42:38;3.55;;;2.67;;
11348;SDS011;5729;43.570;27.826;2023-05-14T05:45:05;4.28;;;2.55;;
11348;SDS011;5729;43.570;27.826;2023-05-14T05:47:31;4.38;;;2.45;;
11348;SDS011;5729;43.570;27.826;2023-05-14T05:49:56;2.65;;;2.33;;
11348;SDS011;5729;43.570;27.826;2023-05-14T05:52:22;4.47;;;2.72;;
11348;SDS011;5729;43.570;27.826;2023-05-14T05:54:47;4.75;;;2.70;;
11348;SDS011;5729;43.570;27.826;2023-05-14T05:57:13;9.70;;;2.92;;
11348;SDS011;5729;43.570;27.826;2023-05-14T05:59:38;13.75;;;3.17;;
11348;SDS011;5729;43.570;27.826;2023-05-14T06:02:04;7.43;;;2.70;;
11348;SDS011;5729;43.570;27.826;2023-05-14T06:04:29;8.93;;;2.38;;
11348;SDS011;5729;43.570;27.826;2023-05-14T06:06:55;4.95;;;2.40;;
11348;SDS011;5729;43.570;27.826;2023-05-14T06:09:20;2.20;;;2.00;;
11348;SDS011;5729;43.570;27.826;2023-05-14T06:11:45;6.07;;;2.00;;
11348;SDS011;5729;43.570;27.826;2023-05-14T06:14:11;7.43;;;2.78;;
11348;SDS011;5729;43.570;27.826;2023-05-14T06:16:36;3.78;;;2.50;;
11348;SDS011;5729;43.570;27.826;2023-05-14T06:19:02;2.05;;;1.83;;
11348;SDS011;5729;43.570;27.826;2023-05-14T06:21:27;4.60;;;2.15;;
11348;SDS011;5729;43.570;27.826;2023-05-14T06:23:53;2.35;;;1.85;;
11348;SDS011;5729;43.570;27.826;2023-05-14T06:26:18;4.72;;;2.35;;
11348;SDS011;5729;43.570;27.826;2023-05-14T06:28:44;6.45;;;2.17;;
11348;SDS011;5729;43.570;27.826;2023-05-14T06:31:09;8.40;;;2.15;;
11348;SDS011;5729;43.570;27.826;2023-05-14T06:33:35;3.20;;;1.88;;
11348;SDS011;5729;43.570;27.826;2023-05-14T06:36:02;15.30;;;3.78;;
11348;SDS011;5729;43.570;27.826;2023-05-14T06:38:28;6.80;;;1.92;;
11348;SDS011;5729;43.570;27.826;2023-05-14T06:40:54;4.70;;;2.03;;
11348;SDS011;5729;43.570;27.826;2023-05-14T06:43:19;3.08;;;1.65;;
11348;SDS011;5729;43.570;27.826;2023-05-14T06:45:48;3.35;;;2.22;;
11348;SDS011;5729;43.570;27.826;2023-05-14T06:48:14;4.22;;;1.85;;
11348;SDS011;5729;43.570;27.826;2023-05-14T06:50:42;3.08;;;2.17;;
11348;SDS011;5729;43.570;27.826;2023-05-14T06:53:08;6.55;;;2.10;;
11348;SDS011;5729;43.570;27.826;2023-05-14T06:55:33;2.80;;;1.75;;
11348;SDS011;5729;43.570;27.826;2023-05-14T06:58:00;2.03;;;1.83;;
11348;SDS011;5729;43.570;27.826;2023-05-14T07:00:26;4.05;;;2.13;;
11348;SDS011;5729;43.570;27.826;2023-05-14T07:02:52;5.15;;;2.60;;
11348;SDS011;5729;43.570;27.826;2023-05-14T07:05:17;5.68;;;1.70;;
11348;SDS011;5729;43.570;27.826;2023-05-14T07:07:43;2.88;;;1.60;;
11348;SDS011;5729;43.570;27.826;2023-05-14T07:10:09;3.85;;;1.65;;
11348;SDS011;5729;43.570;27.826;2023-05-14T07:12:35;4.13;;;2.38;;
11348;SDS011;5729;43.570;27.826;2023-05-14T07:15:00;3.97;;;1.90;;
11348;SDS011;5729;43.570;27.826;2023-05-14T07:17:26;1.77;;;1.65;;
11348;SDS011;5729;43.570;27.826;2023-05-14T07:19:51;2.00;;;1.80;;
11348;SDS011;5729;43.570;27.826;2023-05-14T07:22:16;2.95;;;2.10;;
11348;SDS011;5729;43.570;27.826;2023-05-14T07:24:42;2.80;;;1.67;;
11348;SDS011;5729;43.570;27.826;2023-05-14T07:27:07;5.25;;;2.08;;
11348;SDS011;5729;43.570;27.826;2023-05-14T07:29:33;4.03;;;1.92;;
11348;SDS011;5729;43.570;27.826;2023-05-14T07:31:59;4.60;;;1.77;;
11348;SDS011;5729;43.570;27.826;2023-05-14T07:34:25;7.82;;;2.50;;
11348;SDS011;5729;43.570;27.826;2023-05-14T07:36:51;4.50;;;2.20;;
11348;SDS011;5729;43.570;27.826;2023-05-14T07:39:17;3.72;;;1.80;;
11348;SDS011;5729;43.570;27.826;2023-05-14T07:41:42;2.00;;;1.73;;
11348;SDS011;5729;43.570;27.826;2023-05-14T07:44:08;3.15;;;1.83;;
11348;SDS011;5729;43.570;27.826;2023-05-14T07:46:35;6.70;;;2.08;;
11348;SDS011;5729;43.570;27.826;2023-05-14T07:49:00;3.17;;;1.73;;
11348;SDS011;5729;43.570;27.826;2023-05-14T07:51:26;4.18;;;2.00;;
11348;SDS011;5729;43.570;27.826;2023-05-14T07:53:52;4.15;;;1.73;;
11348;SDS011;5729;43.570;27.826;2023-05-14T07:56:19;3.67;;;1.85;;
11348;SDS011;5729;43.570;27.826;2023-05-14T07:58:48;4.95;;;2.00;;
11348;SDS011;5729;43.570;27.826;2023-05-14T08:01:14;2.58;;;1.90;;
11348;SDS011;5729;43.570;27.826;2023-05-14T08:03:40;2.78;;;1.73;;
11348;SDS011;5729;43.570;27.826;2023-05-14T08:06:05;5.93;;;2.05;;
11348;SDS011;5729;43.570;27.826;2023-05-14T08:08:31;2.10;;;1.80;;
11348;SDS011;5729;43.570;27.826;2023-05-14T08:10:56;3.00;;;2.10;;
11348;SDS011;5729;43.570;27.826;2023-05-14T08:13:21;2.85;;;1.90;;
11348;SDS011;5729;43.570;27.826;2023-05-14T08:15:47;7.35;;;1.80;;
11348;SDS011;5729;43.570;27.826;2023-05-14T08:18:13;3.20;;;1.70;;
11348;SDS011;5729;43.570;27.826;2023-05-14T08:20:38;2.05;;;1.73;;
11348;SDS011;5729;43.570;27.826;2023-05-14T08:23:03;2.85;;;1.90;;
11348;SDS011;5729;43.570;27.826;2023-05-14T08:25:31;2.53;;;1.60;;
11348;SDS011;5729;43.570;27.826;2023-05-14T08:27:56;4.72;;;2.33;;
11348;SDS011;5729;43.570;27.826;2023-05-14T08:30:23;7.28;;;1.98;;
11348;SDS011;5729;43.570;27.826;2023-05-14T08:32:49;5.90;;;1.73;;
11348;SDS011;5729;43.570;27.826;2023-05-14T08:35:15;7.45;;;2.10;;
11348;SDS011;5729;43.570;27.826;2023-05-14T08:37:41;4.63;;;1.90;;
11348;SDS011;5729;43.570;27.826;2023-05-14T08:40:07;4.18;;;1.92;;
11348;SDS011;5729;43.570;27.826;2023-05-14T08:42:33;4.57;;;2.00;;
11348;SDS011;5729;43.570;27.826;2023-05-14T08:45:00;7.05;;;2.10;;
11348;SDS011;5729;43.570;27.826;2023-05-14T08:47:28;4.32;;;1.90;;
11348;SDS011;5729;43.570;27.826;2023-05-14T08:50:01;7.75;;;2.13;;
11348;SDS011;5729;43.570;27.826;2023-05-14T08:52:28;6.13;;;1.80;;
11348;SDS011;5729;43.570;27.826;2023-05-14T08:54:55;3.30;;;1.80;;
11348;SDS011;5729;43.570;27.826;2023-05-14T08:57:22;2.22;;;1.77;;
11348;SDS011;5729;43.570;27.826;2023-05-14T08:59:50;2.83;;;1.70;;
11348;SDS011;5729;43.570;27.826;2023-05-14T09:02:21;4.00;;;1.55;;
11348;SDS011;5729;43.570;27.826;2023-05-14T09:04:53;2.30;;;1.73;;
11348;SDS011;5729;43.570;27.826;2023-05-14T09:07:21;3.55;;;1.75;;
11348;SDS011;5729;43.570;27.826;2023-05-14T09:09:47;4.82;;;2.13;;
11348;SDS011;5729;43.570;27.826;2023-05-14T09:12:13;4.30;;;2.00;;
11348;SDS011;5729;43.570;27.826;2023-05-14T09:14:38;1.83;;;1.73;;
11348;SDS011;5729;43.570;27.826;2023-05-14T09:17:04;2.80;;;1.90;;
11348;SDS011;5729;43.570;27.826;2023-05-14T09:19:29;2.90;;;1.90;;
11348;SDS011;5729;43.570;27.826;2023-05-14T09:21:58;3.90;;;1.73;;
11348;SDS011;5729;43.570;27.826;2023-05-14T09:24:25;3.80;;;1.77;;
11348;SDS011;5729;43.570;27.826;2023-05-14T09:26:53;8.43;;;2.30;;
11348;SDS011;5729;43.570;27.826;2023-05-14T09:29:20;3.05;;;1.95;;
11348;SDS011;5729;43.570;27.826;2023-05-14T09:31:46;3.22;;;2.00;;
11348;SDS011;5729;43.570;27.826;2023-05-14T09:34:22;3.08;;;1.98;;
11348;SDS011;5729;43.570;27.826;2023-05-14T09:36:59;8.32;;;1.90;;
11348;SDS011;5729;43.570;27.826;2023-05-14T09:39:26;4.13;;;1.80;;
11348;SDS011;5729;43.570;27.826;2023-05-14T09:41:53;3.00;;;1.92;;
11348;SDS011;5729;43.570;27.826;2023-05-14T09:44:19;6.35;;;2.05;;
11348;SDS011;5729;43.570;27.826;2023-05-14T09:46:45;6.43;;;1.98;;
11348;SDS011;5729;43.570;27.826;2023-05-14T09:49:11;4.78;;;1.98;;
11348;SDS011;5729;43.570;27.826;2023-05-14T09:51:36;7.07;;;2.10;;
11348;SDS011;5729;43.570;27.826;2023-05-14T09:54:05;4.00;;;2.00;;
11348;SDS011;5729;43.570;27.826;2023-05-14T09:56:32;4.97;;;1.73;;
11348;SDS011;5729;43.570;27.826;2023-05-14T09:58:58;5.13;;;2.05;;
11348;SDS011;5729;43.570;27.826;2023-05-14T10:01:24;2.83;;;2.10;;
11348;SDS011;5729;43.570;27.826;2023-05-14T10:03:51;7.07;;;2.30;;
11348;SDS011;5729;43.570;27.826;2023-05-14T10:06:18;4.60;;;1.75;;
11348;SDS011;5729;43.570;27.826;2023-05-14T10:08:52;2.10;;;1.90;;
11348;SDS011;5729;43.570;27.826;2023-05-14T10:11:21;1.80;;;1.70;;
11348;SDS011;5729;43.570;27.826;2023-05-14T10:16:32;6.30;;;1.98;;
11348;SDS011;5729;43.570;27.826;2023-05-14T10:19:08;2.42;;;1.92;;
11348;SDS011;5729;43.570;27.826;2023-05-14T10:21:36;5.65;;;3.13;;
11348;SDS011;5729;43.570;27.826;2023-05-14T10:24:02;7.53;;;2.30;;
11348;SDS011;5729;43.570;27.826;2023-05-14T10:26:30;3.60;;;2.15;;
11348;SDS011;5729;43.570;27.826;2023-05-14T10:28:57;3.35;;;2.10;;
11348;SDS011;5729;43.570;27.826;2023-05-14T10:31:43;3.28;;;2.50;;
11348;SDS011;5729;43.570;27.826;2023-05-14T10:34:29;6.18;;;2.55;;
11348;SDS011;5729;43.570;27.826;2023-05-14T10:37:14;6.65;;;2.20;;
11348;SDS011;5729;43.570;27.826;2023-05-14T10:39:45;2.70;;;2.40;;
11348;SDS011;5729;43.570;27.826;2023-05-14T10:45:02;16.27;;;3.28;;
11348;SDS011;5729;43.570;27.826;2023-05-14T10:47:31;5.97;;;2.55;;
11348;SDS011;5729;43.570;27.826;2023-05-14T10:49:58;3.85;;;2.17;;
11348;SDS011;5729;43.570;27.826;2023-05-14T10:52:26;7.38;;;2.30;;
11348;SDS011;5729;43.570;27.826;2023-05-14T10:54:53;9.48;;;2.25;;
11348;SDS011;5729;43.570;27.826;2023-05-14T10:57:21;5.25;;;2.20;;
11348;SDS011;5729;43.570;27.826;2023-05-14T10:59:49;3.53;;;2.13;;
11348;SDS011;5729;43.570;27.826;2023-05-14T11:02:36;2.00;;;1.80;;
11348;SDS011;5729;43.570;27.826;2023-05-14T11:05:03;3.65;;;2.22;;
11348;SDS011;5729;43.570;27.826;2023-05-14T11:07:38;11.07;;;2.42;;
11348;SDS011;5729;43.570;27.826;2023-05-14T11:10:12;5.65;;;2.03;;
11348;SDS011;5729;43.570;27.826;2023-05-14T11:12:39;5.75;;;2.42;;
11348;SDS011;5729;43.570;27.826;2023-05-14T11:15:07;2.47;;;2.10;;
11348;SDS011;5729;43.570;27.826;2023-05-14T11:17:34;2.53;;;2.30;;
11348;SDS011;5729;43.570;27.826;2023-05-14T11:20:00;3.05;;;2.40;;
11348;SDS011;5729;43.570;27.826;2023-05-14T11:22:26;3.03;;;2.13;;
11348;SDS011;5729;43.570;27.826;2023-05-14T11:24:52;4.63;;;1.92;;
11348;SDS011;5729;43.570;27.826;2023-05-14T11:27:17;9.30;;;2.40;;
11348;SDS011;5729;43.570;27.826;2023-05-14T11:29:45;3.15;;;1.98;;
11348;SDS011;5729;43.570;27.826;2023-05-14T11:32:11;4.35;;;2.17;;
11348;SDS011;5729;43.570;27.826;2023-05-14T11:34:38;2.47;;;2.28;;
11348;SDS011;5729;43.570;27.826;2023-05-14T11:37:04;4.80;;;2.20;;
11348;SDS011;5729;43.570;27.826;2023-05-14T11:39:30;5.32;;;1.92;;
11348;SDS011;5729;43.570;27.826;2023-05-14T11:41:57;2.92;;;2.33;;
11348;SDS011;5729;43.570;27.826;2023-05-14T11:44:23;3.25;;;2.20;;
11348;SDS011;5729;43.570;27.826;2023-05-14T11:46:53;2.80;;;2.30;;
11348;SDS011;5729;43.570;27.826;2023-05-14T11:49:20;4.60;;;2.40;;
11348;SDS011;5729;43.570;27.826;2023-05-14T11:51:47;4.78;;;3.03;;
11348;SDS011;5729;43.570;27.826;2023-05-14T11:54:13;2.65;;;2.15;;
11348;SDS011;5729;43.570;27.826;2023-05-14T11:56:38;4.05;;;2.20;;
11348;SDS011;5729;43.570;27.826;2023-05-14T11:59:04;5.30;;;2.03;;
11348;SDS011;5729;43.570;27.826;2023-05-14T12:01:34;3.67;;;2.13;;
11348;SDS011;5729;43.570;27.826;2023-05-14T12:04:02;2.75;;;2.00;;
11348;SDS011;5729;43.570;27.826;2023-05-14T12:06:31;4.07;;;2.17;;
11348;SDS011;5729;43.570;27.826;2023-05-14T12:08:57;3.40;;;2.33;;
11348;SDS011;5729;43.570;27.826;2023-05-14T12:11:22;5.65;;;2.50;;
11348;SDS011;5729;43.570;27.826;2023-05-14T12:13:48;4.03;;;2.15;;
11348;SDS011;5729;43.570;27.826;2023-05-14T12:16:13;2.50;;;2.00;;
11348;SDS011;5729;43.570;27.826;2023-05-14T12:18:39;3.30;;;2.08;;
11348;SDS011;5729;43.570;27.826;2023-05-14T12:21:05;3.45;;;2.30;;
11348;SDS011;5729;43.570;27.826;2023-05-14T12:23:33;5.10;;;1.98;;
11348;SDS011;5729;43.570;27.826;2023-05-14T12:26:02;2.35;;;2.15;;
11348;SDS011;5729;43.570;27.826;2023-05-14T12:28:33;4.05;;;2.03;;
11348;SDS011;5729;43.570;27.826;2023-05-14T12:31:02;8.00;;;2.75;;
11348;SDS011;5729;43.570;27.826;2023-05-14T12:33:28;2.45;;;2.13;;
11348;SDS011;5729;43.570;27.826;2023-05-14T12:35:53;2.88;;;1.92;;
11348;SDS011;5729;43.570;27.826;2023-05-14T12:38:21;8.60;;;2.30;;
11348;SDS011;5729;43.570;27.826;2023-05-14T12:40:46;5.90;;;2.33;;
11348;SDS011;5729;43.570;27.826;2023-05-14T12:43:12;5.65;;;2.13;;
11348;SDS011;5729;43.570;27.826;2023-05-14T12:45:38;7.25;;;2.75;;
11348;SDS011;5729;43.570;27.826;2023-05-14T12:48:05;3.85;;;2.25;;
11348;SDS011;5729;43.570;27.826;2023-05-14T12:50:30;7.25;;;2.75;;
11348;SDS011;5729;43.570;27.826;2023-05-14T12:52:56;3.17;;;2.20;;
11348;SDS011;5729;43.570;27.826;2023-05-14T12:55:21;3.50;;;2.08;;
11348;SDS011;5729;43.570;27.826;2023-05-14T12:57:47;4.65;;;2.40;;
11348;SDS011;5729;43.570;27.826;2023-05-14T13:00:13;5.25;;;3.30;;
11348;SDS011;5729;43.570;27.826;2023-05-14T13:02:39;4.85;;;2.15;;
11348;SDS011;5729;43.570;27.826;2023-05-14T13:05:05;9.55;;;2.35;;
11348;SDS011;5729;43.570;27.826;2023-05-14T13:07:30;4.35;;;2.22;;
11348;SDS011;5729;43.570;27.826;2023-05-14T13:09:56;3.10;;;2.20;;
11348;SDS011;5729;43.570;27.826;2023-05-14T13:12:22;3.55;;;2.13;;
11348;SDS011;5729;43.570;27.826;2023-05-14T13:14:48;6.90;;;2.47;;
11348;SDS011;5729;43.570;27.826;2023-05-14T13:17:13;6.80;;;2.88;;
11348;SDS011;5729;43.570;27.826;2023-05-14T13:19:39;4.43;;;2.65;;
11348;SDS011;5729;43.570;27.826;2023-05-14T13:22:04;3.63;;;2.60;;
11348;SDS011;5729;43.570;27.826;2023-05-14T13:24:30;7.35;;;2.33;;
11348;SDS011;5729;43.570;27.826;2023-05-14T13:26:55;3.50;;;2.60;;
11348;SDS011;5729;43.570;27.826;2023-05-14T13:29:21;4.63;;;2.40;;
11348;SDS011;5729;43.570;27.826;2023-05-14T13:31:46;4.35;;;2.45;;
11348;SDS011;5729;43.570;27.826;2023-05-14T13:34:12;2.78;;;2.47;;
11348;SDS011;5729;43.570;27.826;2023-05-14T13:36:37;3.05;;;2.47;;
11348;SDS011;5729;43.570;27.826;2023-05-14T13:39:06;4.07;;;2.00;;
11348;SDS011;5729;43.570;27.826;2023-05-14T13:41:32;8.70;;;2.90;;
11348;SDS011;5729;43.570;27.826;2023-05-14T13:43:59;4.78;;;2.40;;
11348;SDS011;5729;43.570;27.826;2023-05-14T13:46:25;6.90;;;2.28;;
11348;SDS011;5729;43.570;27.826;2023-05-14T13:48:50;5.53;;;2.35;;
11348;SDS011;5729;43.570;27.826;2023-05-14T13:51:16;4.65;;;2.35;;
11348;SDS011;5729;43.570;27.826;2023-05-14T13:53:41;6.18;;;2.65;;
11348;SDS011;5729;43.570;27.826;2023-05-14T13:56:06;4.90;;;2.10;;
11348;SDS011;5729;43.570;27.826;2023-05-14T13:58:32;2.80;;;2.13;;
11348;SDS011;5729;43.570;27.826;2023-05-14T14:00:58;2.45;;;2.00;;
11348;SDS011;5729;43.570;27.826;2023-05-14T14:03:23;3.13;;;2.40;;
11348;SDS011;5729;43.570;27.826;2023-05-14T14:05:49;4.35;;;2.60;;
11348;SDS011;5729;43.570;27.826;2023-05-14T14:08:16;3.70;;;2.20;;
11348;SDS011;5729;43.570;27.826;2023-05-14T14:10:41;5.32;;;2.50;;
11348;SDS011;5729;43.570;27.826;2023-05-14T14:13:07;6.30;;;2.72;;
11348;SDS011;5729;43.570;27.826;2023-05-14T14:15:34;4.63;;;2.33;;
11348;SDS011;5729;43.570;27.826;2023-05-14T14:17:59;5.03;;;2.20;;
11348;SDS011;5729;43.570;27.826;2023-05-14T14:20:25;3.63;;;2.58;;
11348;SDS011;5729;43.570;27.826;2023-05-14T14:22:50;3.63;;;2.60;;
11348;SDS011;5729;43.570;27.826;2023-05-14T14:25:16;4.75;;;2.42;;
11348;SDS011;5729;43.570;27.826;2023-05-14T14:27:42;4.97;;;2.78;;
11348;SDS011;5729;43.570;27.826;2023-05-14T14:30:08;2.22;;;1.95;;
11348;SDS011;5729;43.570;27.826;2023-05-14T14:32:40;6.00;;;2.08;;
11348;SDS011;5729;43.570;27.826;2023-05-14T14:35:09;3.90;;;1.95;;
11348;SDS011;5729;43.570;27.826;2023-05-14T14:37:36;4.00;;;2.22;;
11348;SDS011;5729;43.570;27.826;2023-05-14T14:40:02;8.73;;;2.22;;
11348;SDS011;5729;43.570;27.826;2023-05-14T14:42:28;4.63;;;2.10;;
11348;SDS011;5729;43.570;27.826;2023-05-14T14:44:53;6.00;;;2.45;;
11348;SDS011;5729;43.570;27.826;2023-05-14T14:47:19;3.38;;;2.08;;
11348;SDS011;5729;43.570;27.826;2023-05-14T14:49:44;3.05;;;2.13;;